sensor_id;sensor_type;location;lat;lon;timestamp;temperature;humidity
65864;SHT30;52639;51.180;20.460;2023-04-03T00:03:31;0.27;97.00
65864;SHT30;52639;51.180;20.460;2023-04-03T00:07:34;0.25;97.42
65864;SHT30;52639;51.180;20.460;2023-04-03T00:11:38;0.20;97.17
65864;SHT30;52639;51.180;20.460;2023-04-03T00:15:41;0.14;97.54
65864;SHT30;52639;51.180;20.460;2023-04-03T00:19:44;0.11;97.66
65864;SHT30;52639;51.180;20.460;2023-04-03T00:23:47;0.11;97.70
65864;SHT30;52639;51.180;20.460;2023-04-03T00:27:52;0.08;97.68
65864;SHT30;52639;51.180;20.460;2023-04-03T00:31:54;0.07;97.98
65864;SHT30;52639;51.180;20.460;2023-04-03T00:35:57;0.06;97.80
65864;SHT30;52639;51.180;20.460;2023-04-03T00:40:01;0.07;97.57
65864;SHT30;52639;51.180;20.460;2023-04-03T00:44:22;0.10;97.30
65864;SHT30;52639;51.180;20.460;2023-04-03T00:48:46;0.10;97.13
65864;SHT30;52639;51.180;20.460;2023-04-03T00:52:50;0.10;97.02
65864;SHT30;52639;51.180;20.460;2023-04-03T00:56:55;0.11;97.57
65864;SHT30;52639;51.180;20.460;2023-04-03T01:01:05;0.10;97.25
65864;SHT30;52639;51.180;20.460;2023-04-03T01:05:09;0.07;97.27
65864;SHT30;52639;51.180;20.460;2023-04-03T01:09:12;0.11;97.48
65864;SHT30;52639;51.180;20.460;2023-04-03T01:13:23;0.11;97.36
65864;SHT30;52639;51.180;20.460;2023-04-03T01:17:31;0.13;97.17
65864;SHT30;52639;51.180;20.460;2023-04-03T01:21:55;0.13;96.82
65864;SHT30;52639;51.180;20.460;2023-04-03T01:26:02;0.10;96.90
65864;SHT30;52639;51.180;20.460;2023-04-03T01:30:07;0.07;97.25
65864;SHT30;52639;51.180;20.460;2023-04-03T01:34:11;0.03;96.92
65864;SHT30;52639;51.180;20.460;2023-04-03T01:38:14;0.00;96.45
65864;SHT30;52639;51.180;20.460;2023-04-03T01:42:17;0.03;96.45
65864;SHT30;52639;51.180;20.460;2023-04-03T01:46:20;0.01;96.40
65864;SHT30;52639;51.180;20.460;2023-04-03T01:50:25;0.00;96.13
65864;SHT30;52639;51.180;20.460;2023-04-03T01:54:29;-0.02;96.63
65864;SHT30;52639;51.180;20.460;2023-04-03T01:58:32;-0.04;96.47
65864;SHT30;52639;51.180;20.460;2023-04-03T02:02:36;-0.07;97.13
65864;SHT30;52639;51.180;20.460;2023-04-03T02:06:40;-0.04;96.57
65864;SHT30;52639;51.180;20.460;2023-04-03T02:10:43;-0.03;96.93
65864;SHT30;52639;51.180;20.460;2023-04-03T02:14:46;-0.04;96.73
65864;SHT30;52639;51.180;20.460;2023-04-03T02:18:49;-0.06;96.66
65864;SHT30;52639;51.180;20.460;2023-04-03T02:22:53;-0.06;96.59
65864;SHT30;52639;51.180;20.460;2023-04-03T02:26:56;-0.07;96.57
65864;SHT30;52639;51.180;20.460;2023-04-03T02:30:59;-0.07;96.35
65864;SHT30;52639;51.180;20.460;2023-04-03T02:35:02;-0.09;95.82
65864;SHT30;52639;51.180;20.460;2023-04-03T02:39:07;-0.11;95.37
65864;SHT30;52639;51.180;20.460;2023-04-03T02:43:10;-0.14;95.60
65864;SHT30;52639;51.180;20.460;2023-04-03T02:47:12;-0.16;95.74
65864;SHT30;52639;51.180;20.460;2023-04-03T02:51:15;-0.17;95.63
65864;SHT30;52639;51.180;20.460;2023-04-03T02:55:20;-0.18;95.07
65864;SHT30;52639;51.180;20.460;2023-04-03T02:59:23;-0.20;95.61
65864;SHT30;52639;51.180;20.460;2023-04-03T03:03:26;-0.23;95.02
65864;SHT30;52639;51.180;20.460;2023-04-03T03:07:28;-0.23;94.84
65864;SHT30;52639;51.180;20.460;2023-04-03T03:11:33;-0.23;94.35
65864;SHT30;52639;51.180;20.460;2023-04-03T03:15:36;-0.26;94.23
65864;SHT30;52639;51.180;20.460;2023-04-03T03:19:39;-0.28;94.14
65864;SHT30;52639;51.180;20.460;2023-04-03T03:23:42;-0.31;94.02
65864;SHT30;52639;51.180;20.460;2023-04-03T03:27:46;-0.34;93.69
65864;SHT30;52639;51.180;20.460;2023-04-03T03:31:49;-0.37;93.78
65864;SHT30;52639;51.180;20.460;2023-04-03T03:35:52;-0.44;93.47
65864;SHT30;52639;51.180;20.460;2023-04-03T03:39:55;-0.51;93.70
65864;SHT30;52639;51.180;20.460;2023-04-03T03:43:59;-0.57;93.85
65864;SHT30;52639;51.180;20.460;2023-04-03T03:48:03;-0.68;93.99
65864;SHT30;52639;51.180;20.460;2023-04-03T03:52:11;-0.74;93.65
65864;SHT30;52639;51.180;20.460;2023-04-03T03:56:14;-0.88;93.53
65864;SHT30;52639;51.180;20.460;2023-04-03T04:00:18;-1.01;93.33
65864;SHT30;52639;51.180;20.460;2023-04-03T04:04:21;-1.13;93.98
65864;SHT30;52639;51.180;20.460;2023-04-03T04:08:24;-1.22;93.51
65864;SHT30;52639;51.180;20.460;2023-04-03T04:12:27;-1.32;94.02
65864;SHT30;52639;51.180;20.460;2023-04-03T04:16:31;-1.35;94.86
65864;SHT30;52639;51.180;20.460;2023-04-03T04:20:34;-1.38;94.39
65864;SHT30;52639;51.180;20.460;2023-04-03T04:24:37;-1.38;94.41
65864;SHT30;52639;51.180;20.460;2023-04-03T04:28:40;-1.32;94.48
65864;SHT30;52639;51.180;20.460;2023-04-03T04:32:45;-1.31;94.52
65864;SHT30;52639;51.180;20.460;2023-04-03T04:36:48;-1.32;94.61
65864;SHT30;52639;51.180;20.460;2023-04-03T04:40:51;-1.32;94.13
65864;SHT30;52639;51.180;20.460;2023-04-03T04:44:53;-1.29;93.86
65864;SHT30;52639;51.180;20.460;2023-04-03T04:48:59;-1.25;93.41
65864;SHT30;52639;51.180;20.460;2023-04-03T04:53:04;-1.31;93.33
65864;SHT30;52639;51.180;20.460;2023-04-03T04:57:07;-1.19;93.80
65864;SHT30;52639;51.180;20.460;2023-04-03T05:01:10;-1.11;93.72
65864;SHT30;52639;51.180;20.460;2023-04-03T05:05:15;-0.99;93.21
65864;SHT30;52639;51.180;20.460;2023-04-03T05:09:18;-0.89;92.64
65864;SHT30;52639;51.180;20.460;2023-04-03T05:13:22;-0.74;92.90
65864;SHT30;52639;51.180;20.460;2023-04-03T05:17:25;-0.56;92.36
65864;SHT30;52639;51.180;20.460;2023-04-03T05:21:30;-0.54;91.74
65864;SHT30;52639;51.180;20.460;2023-04-03T05:25:33;-0.65;91.34
65864;SHT30;52639;51.180;20.460;2023-04-03T05:29:36;-0.57;91.95
65864;SHT30;52639;51.180;20.460;2023-04-03T05:33:39;-0.64;91.31
65864;SHT30;52639;51.180;20.460;2023-04-03T05:37:43;-0.64;91.70
65864;SHT30;52639;51.180;20.460;2023-04-03T05:41:46;-0.54;91.02
65864;SHT30;52639;51.180;20.460;2023-04-03T05:45:50;-0.31;90.78
65864;SHT30;52639;51.180;20.460;2023-04-03T05:49:53;-0.26;90.69
65864;SHT30;52639;51.180;20.460;2023-04-03T05:54:06;-0.31;88.95
65864;SHT30;52639;51.180;20.460;2023-04-03T05:58:11;0.06;90.02
65864;SHT30;52639;51.180;20.460;2023-04-03T06:02:15;0.34;88.58
65864;SHT30;52639;51.180;20.460;2023-04-03T06:06:19;0.14;88.58
65864;SHT30;52639;51.180;20.460;2023-04-03T06:10:24;0.27;88.40
65864;SHT30;52639;51.180;20.460;2023-04-03T06:14:27;0.11;87.91
65864;SHT30;52639;51.180;20.460;2023-04-03T06:18:30;0.21;88.72
65864;SHT30;52639;51.180;20.460;2023-04-03T06:22:33;0.27;88.24
65864;SHT30;52639;51.180;20.460;2023-04-03T06:26:37;0.27;86.90
65864;SHT30;52639;51.180;20.460;2023-04-03T06:30:40;0.73;87.08
65864;SHT30;52639;51.180;20.460;2023-04-03T06:34:44;1.35;84.82
65864;SHT30;52639;51.180;20.460;2023-04-03T06:38:47;1.53;82.00
65864;SHT30;52639;51.180;20.460;2023-04-03T06:42:52;1.53;83.79
65864;SHT30;52639;51.180;20.460;2023-04-03T06:46:55;1.87;84.47
65864;SHT30;52639;51.180;20.460;2023-04-03T06:50:58;1.43;81.80
65864;SHT30;52639;51.180;20.460;2023-04-03T06:55:01;0.99;80.61
65864;SHT30;52639;51.180;20.460;2023-04-03T06:59:06;0.96;83.61
65864;SHT30;52639;51.180;20.460;2023-04-03T07:03:09;1.37;82.75
65864;SHT30;52639;51.180;20.460;2023-04-03T07:07:12;1.82;84.12
65864;SHT30;52639;51.180;20.460;2023-04-03T07:11:16;3.31;80.67
65864;SHT30;52639;51.180;20.460;2023-04-03T07:15:20;4.32;77.90
65864;SHT30;52639;51.180;20.460;2023-04-03T07:19:23;2.75;74.52
65864;SHT30;52639;51.180;20.460;2023-04-03T07:23:29;2.31;80.99
65864;SHT30;52639;51.180;20.460;2023-04-03T07:27:32;2.46;81.41
65864;SHT30;52639;51.180;20.460;2023-04-03T07:31:38;2.41;80.64
65864;SHT30;52639;51.180;20.460;2023-04-03T07:35:43;2.58;78.41
65864;SHT30;52639;51.180;20.460;2023-04-03T07:39:46;2.36;79.60
65864;SHT30;52639;51.180;20.460;2023-04-03T07:43:50;2.04;79.27
65864;SHT30;52639;51.180;20.460;2023-04-03T07:47:55;2.59;76.10
65864;SHT30;52639;51.180;20.460;2023-04-03T07:51:59;4.48;73.86
65864;SHT30;52639;51.180;20.460;2023-04-03T07:56:02;3.73;76.70
65864;SHT30;52639;51.180;20.460;2023-04-03T08:00:06;4.01;75.81
65864;SHT30;52639;51.180;20.460;2023-04-03T08:04:11;3.67;73.87
65864;SHT30;52639;51.180;20.460;2023-04-03T08:08:15;4.84;73.09
65864;SHT30;52639;51.180;20.460;2023-04-03T08:12:19;5.25;64.82
65864;SHT30;52639;51.180;20.460;2023-04-03T08:16:23;5.45;72.28
65864;SHT30;52639;51.180;20.460;2023-04-03T08:20:29;4.63;73.83
65864;SHT30;52639;51.180;20.460;2023-04-03T08:24:32;4.43;76.95
65864;SHT30;52639;51.180;20.460;2023-04-03T08:28:36;4.06;76.83
65864;SHT30;52639;51.180;20.460;2023-04-03T08:32:39;4.23;78.24
65864;SHT30;52639;51.180;20.460;2023-04-03T08:36:44;4.72;77.72
65864;SHT30;52639;51.180;20.460;2023-04-03T08:40:47;3.92;75.70
65864;SHT30;52639;51.180;20.460;2023-04-03T08:44:57;3.91;76.82
65864;SHT30;52639;51.180;20.460;2023-04-03T08:49:02;4.26;77.82
65864;SHT30;52639;51.180;20.460;2023-04-03T08:53:12;4.91;76.24
65864;SHT30;52639;51.180;20.460;2023-04-03T08:57:17;3.95;73.08
65864;SHT30;52639;51.180;20.460;2023-04-03T09:01:26;3.88;72.52
65864;SHT30;52639;51.180;20.460;2023-04-03T09:05:38;3.51;76.24
65864;SHT30;52639;51.180;20.460;2023-04-03T09:09:45;3.37;75.29
65864;SHT30;52639;51.180;20.460;2023-04-03T09:13:54;2.68;78.07
65864;SHT30;52639;51.180;20.460;2023-04-03T09:18:02;3.27;72.63
65864;SHT30;52639;51.180;20.460;2023-04-03T09:22:14;2.86;75.45
65864;SHT30;52639;51.180;20.460;2023-04-03T09:26:24;4.05;76.27
65864;SHT30;52639;51.180;20.460;2023-04-03T09:30:28;4.26;73.80
65864;SHT30;52639;51.180;20.460;2023-04-03T09:34:33;3.64;71.89
65864;SHT30;52639;51.180;20.460;2023-04-03T09:38:37;2.79;77.74
65864;SHT30;52639;51.180;20.460;2023-04-03T09:42:42;2.60;79.95
65864;SHT30;52639;51.180;20.460;2023-04-03T09:46:46;3.30;79.46
65864;SHT30;52639;51.180;20.460;2023-04-03T09:50:58;3.53;77.86
65864;SHT30;52639;51.180;20.460;2023-04-03T09:55:06;3.06;75.32
65864;SHT30;52639;51.180;20.460;2023-04-03T09:59:15;2.20;76.84
65864;SHT30;52639;51.180;20.460;2023-04-03T10:03:25;2.41;78.17
65864;SHT30;52639;51.180;20.460;2023-04-03T10:07:33;2.17;77.68
65864;SHT30;52639;51.180;20.460;2023-04-03T10:11:37;2.83;75.25
65864;SHT30;52639;51.180;20.460;2023-04-03T10:15:44;3.17;75.91
65864;SHT30;52639;51.180;20.460;2023-04-03T10:19:50;3.06;75.70
65864;SHT30;52639;51.180;20.460;2023-04-03T10:23:58;3.31;75.09
65864;SHT30;52639;51.180;20.460;2023-04-03T10:28:05;3.27;74.97
65864;SHT30;52639;51.180;20.460;2023-04-03T10:32:26;3.38;74.91
65864;SHT30;52639;51.180;20.460;2023-04-03T10:36:40;3.13;74.94
65864;SHT30;52639;51.180;20.460;2023-04-03T10:40:50;2.58;70.71
65864;SHT30;52639;51.180;20.460;2023-04-03T10:45:08;2.55;73.68
65864;SHT30;52639;51.180;20.460;2023-04-03T10:49:25;3.11;76.71
65864;SHT30;52639;51.180;20.460;2023-04-03T10:53:36;3.45;74.99
65864;SHT30;52639;51.180;20.460;2023-04-03T10:57:42;3.04;68.02
65864;SHT30;52639;51.180;20.460;2023-04-03T11:01:47;3.28;70.09
65864;SHT30;52639;51.180;20.460;2023-04-03T11:05:53;3.63;71.81
65864;SHT30;52639;51.180;20.460;2023-04-03T11:10:02;3.33;66.62
65864;SHT30;52639;51.180;20.460;2023-04-03T11:14:10;3.51;62.68
65864;SHT30;52639;51.180;20.460;2023-04-03T11:18:20;3.60;64.43
65864;SHT30;52639;51.180;20.460;2023-04-03T11:22:30;4.29;68.42
65864;SHT30;52639;51.180;20.460;2023-04-03T11:26:38;4.64;67.67
65864;SHT30;52639;51.180;20.460;2023-04-03T11:30:46;4.45;66.41
65864;SHT30;52639;51.180;20.460;2023-04-03T11:34:51;5.24;68.55
65864;SHT30;52639;51.180;20.460;2023-04-03T11:39:02;5.30;64.78
65864;SHT30;52639;51.180;20.460;2023-04-03T11:43:21;5.45;65.90
65864;SHT30;52639;51.180;20.460;2023-04-03T11:47:46;5.20;64.95
65864;SHT30;52639;51.180;20.460;2023-04-03T11:51:49;4.49;59.11
65864;SHT30;52639;51.180;20.460;2023-04-03T11:55:58;4.66;65.81
65864;SHT30;52639;51.180;20.460;2023-04-03T12:09:29;4.43;60.98
65864;SHT30;52639;51.180;20.460;2023-04-03T12:13:34;4.32;57.29
65864;SHT30;52639;51.180;20.460;2023-04-03T12:17:38;4.54;62.16
65864;SHT30;52639;51.180;20.460;2023-04-03T12:22:07;5.65;62.36
65864;SHT30;52639;51.180;20.460;2023-04-03T12:26:21;5.27;59.39
65864;SHT30;52639;51.180;20.460;2023-04-03T12:30:29;5.85;59.43
65864;SHT30;52639;51.180;20.460;2023-04-03T12:34:46;5.56;64.74
65864;SHT30;52639;51.180;20.460;2023-04-03T12:43:43;5.07;55.07
65864;SHT30;52639;51.180;20.460;2023-04-03T12:47:53;4.67;57.74
65864;SHT30;52639;51.180;20.460;2023-04-03T12:51:57;5.13;57.94
65864;SHT30;52639;51.180;20.460;2023-04-03T12:56:24;5.61;61.24
65864;SHT30;52639;51.180;20.460;2023-04-03T13:00:33;5.72;58.35
65864;SHT30;52639;51.180;20.460;2023-04-03T13:04:41;5.10;55.50
65864;SHT30;52639;51.180;20.460;2023-04-03T13:08:49;4.80;57.62
65864;SHT30;52639;51.180;20.460;2023-04-03T13:12:54;4.72;58.61
65864;SHT30;52639;51.180;20.460;2023-04-03T13:16:59;4.32;51.89
65864;SHT30;52639;51.180;20.460;2023-04-03T13:21:06;4.19;53.99
65864;SHT30;52639;51.180;20.460;2023-04-03T13:25:13;4.28;54.06
65864;SHT30;52639;51.180;20.460;2023-04-03T13:29:22;4.29;57.06
65864;SHT30;52639;51.180;20.460;2023-04-03T13:33:28;4.53;56.55
65864;SHT30;52639;51.180;20.460;2023-04-03T13:37:34;4.20;54.50
65864;SHT30;52639;51.180;20.460;2023-04-03T13:41:39;4.54;54.58
65864;SHT30;52639;51.180;20.460;2023-04-03T13:45:57;4.73;57.94
65864;SHT30;52639;51.180;20.460;2023-04-03T13:50:03;4.53;54.60
65864;SHT30;52639;51.180;20.460;2023-04-03T13:54:19;4.46;58.05
65864;SHT30;52639;51.180;20.460;2023-04-03T13:58:24;4.46;52.74
65864;SHT30;52639;51.180;20.460;2023-04-03T14:02:31;4.66;50.43
65864;SHT30;52639;51.180;20.460;2023-04-03T14:06:34;4.32;53.46
65864;SHT30;52639;51.180;20.460;2023-04-03T14:10:39;4.05;52.65
65864;SHT30;52639;51.180;20.460;2023-04-03T14:14:43;4.16;53.30
65864;SHT30;52639;51.180;20.460;2023-04-03T14:18:50;4.19;55.86
65864;SHT30;52639;51.180;20.460;2023-04-03T14:22:53;4.15;56.74
65864;SHT30;52639;51.180;20.460;2023-04-03T14:26:58;4.12;58.60
65864;SHT30;52639;51.180;20.460;2023-04-03T14:31:01;3.99;58.25
65864;SHT30;52639;51.180;20.460;2023-04-03T14:35:05;3.94;55.89
65864;SHT30;52639;51.180;20.460;2023-04-03T14:39:10;3.95;55.27
65864;SHT30;52639;51.180;20.460;2023-04-03T14:43:15;3.77;52.42
65864;SHT30;52639;51.180;20.460;2023-04-03T14:47:20;3.67;54.19
65864;SHT30;52639;51.180;20.460;2023-04-03T14:51:25;3.55;53.08
65864;SHT30;52639;51.180;20.460;2023-04-03T14:55:28;3.60;52.51
65864;SHT30;52639;51.180;20.460;2023-04-03T14:59:32;3.85;57.14
65864;SHT30;52639;51.180;20.460;2023-04-03T15:03:35;4.02;56.10
65864;SHT30;52639;51.180;20.460;2023-04-03T15:07:41;3.96;52.97
65864;SHT30;52639;51.180;20.460;2023-04-03T15:11:44;3.84;54.00
65864;SHT30;52639;51.180;20.460;2023-04-03T15:15:49;3.85;57.23
65864;SHT30;52639;51.180;20.460;2023-04-03T15:19:52;3.60;57.30
65864;SHT30;52639;51.180;20.460;2023-04-03T15:23:56;3.55;56.39
65864;SHT30;52639;51.180;20.460;2023-04-03T15:27:59;3.60;56.82
65864;SHT30;52639;51.180;20.460;2023-04-03T15:32:04;3.53;51.88
65864;SHT30;52639;51.180;20.460;2023-04-03T15:36:08;3.60;55.87
65864;SHT30;52639;51.180;20.460;2023-04-03T15:40:11;3.55;56.97
65864;SHT30;52639;51.180;20.460;2023-04-03T15:44:15;3.44;57.72
65864;SHT30;52639;51.180;20.460;2023-04-03T15:48:22;3.34;58.35
65864;SHT30;52639;51.180;20.460;2023-04-03T15:52:25;3.28;57.77
65864;SHT30;52639;51.180;20.460;2023-04-03T15:56:28;3.19;59.75
65864;SHT30;52639;51.180;20.460;2023-04-03T16:00:32;3.17;61.57
65864;SHT30;52639;51.180;20.460;2023-04-03T16:04:36;3.09;61.70
65864;SHT30;52639;51.180;20.460;2023-04-03T16:08:39;3.10;63.05
65864;SHT30;52639;51.180;20.460;2023-04-03T16:12:45;3.00;63.60
65864;SHT30;52639;51.180;20.460;2023-04-03T16:16:50;2.89;62.29
65864;SHT30;52639;51.180;20.460;2023-04-03T16:20:55;2.76;59.86
65864;SHT30;52639;51.180;20.460;2023-04-03T16:24:58;2.72;61.16
65864;SHT30;52639;51.180;20.460;2023-04-03T16:29:01;2.60;61.89
65864;SHT30;52639;51.180;20.460;2023-04-03T16:33:04;2.63;58.36
65864;SHT30;52639;51.180;20.460;2023-04-03T16:37:09;2.50;55.67
65864;SHT30;52639;51.180;20.460;2023-04-03T16:41:12;2.44;58.14
65864;SHT30;52639;51.180;20.460;2023-04-03T16:45:16;2.17;61.86
65864;SHT30;52639;51.180;20.460;2023-04-03T16:49:19;2.08;60.63
65864;SHT30;52639;51.180;20.460;2023-04-03T16:53:25;2.05;59.21
65864;SHT30;52639;51.180;20.460;2023-04-03T16:57:28;2.02;59.22
65864;SHT30;52639;51.180;20.460;2023-04-03T17:01:32;1.94;61.07
65864;SHT30;52639;51.180;20.460;2023-04-03T17:05:35;1.73;62.33
65864;SHT30;52639;51.180;20.460;2023-04-03T17:09:39;1.44;64.74
65864;SHT30;52639;51.180;20.460;2023-04-03T17:13:42;1.17;65.61
65864;SHT30;52639;51.180;20.460;2023-04-03T17:17:46;1.23;66.06
65864;SHT30;52639;51.180;20.460;2023-04-03T17:21:51;1.23;65.91
65864;SHT30;52639;51.180;20.460;2023-04-03T17:25:56;1.09;66.78
65864;SHT30;52639;51.180;20.460;2023-04-03T17:29:59;0.79;67.34
65864;SHT30;52639;51.180;20.460;2023-04-03T17:34:03;0.60;68.24
65864;SHT30;52639;51.180;20.460;2023-04-03T17:38:15;0.62;67.99
65864;SHT30;52639;51.180;20.460;2023-04-03T17:42:21;0.72;68.24
65864;SHT30;52639;51.180;20.460;2023-04-03T17:46:25;0.78;67.43
65864;SHT30;52639;51.180;20.460;2023-04-03T17:50:31;0.69;67.52
65864;SHT30;52639;51.180;20.460;2023-04-03T17:54:36;0.62;68.69
65864;SHT30;52639;51.180;20.460;2023-04-03T17:58:45;0.89;66.94
65864;SHT30;52639;51.180;20.460;2023-04-03T18:02:52;1.10;65.33
65864;SHT30;52639;51.180;20.460;2023-04-03T18:06:56;0.93;66.18
65864;SHT30;52639;51.180;20.460;2023-04-03T18:11:00;0.79;68.06
65864;SHT30;52639;51.180;20.460;2023-04-03T18:15:11;0.91;66.07
65864;SHT30;52639;51.180;20.460;2023-04-03T18:19:17;0.61;67.63
65864;SHT30;52639;51.180;20.460;2023-04-03T18:23:25;0.41;68.28
65864;SHT30;52639;51.180;20.460;2023-04-03T18:27:31;0.24;69.47
65864;SHT30;52639;51.180;20.460;2023-04-03T18:31:39;0.31;70.52
65864;SHT30;52639;51.180;20.460;2023-04-03T18:35:45;0.47;69.05
65864;SHT30;52639;51.180;20.460;2023-04-03T18:39:48;0.54;69.22
65864;SHT30;52639;51.180;20.460;2023-04-03T18:43:56;0.44;69.77
65864;SHT30;52639;51.180;20.460;2023-04-03T18:48:05;0.52;70.35
65864;SHT30;52639;51.180;20.460;2023-04-03T18:52:09;0.62;69.47
65864;SHT30;52639;51.180;20.460;2023-04-03T18:56:14;0.40;69.97
65864;SHT30;52639;51.180;20.460;2023-04-03T19:00:19;0.21;70.37
65864;SHT30;52639;51.180;20.460;2023-04-03T19:04:26;0.18;70.96
65864;SHT30;52639;51.180;20.460;2023-04-03T19:08:32;0.41;70.39
65864;SHT30;52639;51.180;20.460;2023-04-03T19:12:37;0.36;69.70
65864;SHT30;52639;51.180;20.460;2023-04-03T19:16:43;0.14;70.42
65864;SHT30;52639;51.180;20.460;2023-04-03T19:20:50;0.25;69.43
65864;SHT30;52639;51.180;20.460;2023-04-03T19:24:55;0.21;69.16
65864;SHT30;52639;51.180;20.460;2023-04-03T19:29:00;-0.10;70.35
65864;SHT30;52639;51.180;20.460;2023-04-03T19:33:13;-0.50;70.91
65864;SHT30;52639;51.180;20.460;2023-04-03T19:37:19;-0.61;71.45
65864;SHT30;52639;51.180;20.460;2023-04-03T19:41:28;-0.51;70.89
65864;SHT30;52639;51.180;20.460;2023-04-03T19:45:34;-0.77;71.40
65864;SHT30;52639;51.180;20.460;2023-04-03T19:49:42;-0.75;71.81
65864;SHT30;52639;51.180;20.460;2023-04-03T19:53:49;-1.01;72.28
65864;SHT30;52639;51.180;20.460;2023-04-03T19:57:53;-1.13;73.30
65864;SHT30;52639;51.180;20.460;2023-04-03T20:01:58;-1.32;73.65
65864;SHT30;52639;51.180;20.460;2023-04-03T20:06:03;-1.49;74.15
65864;SHT30;52639;51.180;20.460;2023-04-03T20:10:11;-1.42;74.72
65864;SHT30;52639;51.180;20.460;2023-04-03T20:14:16;-1.38;74.44
65864;SHT30;52639;51.180;20.460;2023-04-03T20:18:20;-1.36;74.14
65864;SHT30;52639;51.180;20.460;2023-04-03T20:22:26;-1.35;74.05
65864;SHT30;52639;51.180;20.460;2023-04-03T20:26:31;-1.26;74.58
65864;SHT30;52639;51.180;20.460;2023-04-03T20:30:39;-1.22;74.81
65864;SHT30;52639;51.180;20.460;2023-04-03T20:34:43;-1.35;74.07
65864;SHT30;52639;51.180;20.460;2023-04-03T20:38:47;-1.49;74.47
65864;SHT30;52639;51.180;20.460;2023-04-03T20:42:52;-1.63;74.91
65864;SHT30;52639;51.180;20.460;2023-04-03T20:46:55;-1.67;75.51
65864;SHT30;52639;51.180;20.460;2023-04-03T20:51:07;-1.80;75.49
65864;SHT30;52639;51.180;20.460;2023-04-03T20:55:10;-1.78;76.01
65864;SHT30;52639;51.180;20.460;2023-04-03T20:59:15;-1.84;75.75
65864;SHT30;52639;51.180;20.460;2023-04-03T21:03:18;-1.88;75.77
65864;SHT30;52639;51.180;20.460;2023-04-03T21:20:45;-2.28;77.16
65864;SHT30;52639;51.180;20.460;2023-04-03T21:24:48;-2.34;77.13
65864;SHT30;52639;51.180;20.460;2023-04-03T21:28:51;-2.44;77.17
65864;SHT30;52639;51.180;20.460;2023-04-03T21:32:54;-2.41;77.57
65864;SHT30;52639;51.180;20.460;2023-04-03T21:37:01;-2.38;77.32
65864;SHT30;52639;51.180;20.460;2023-04-03T21:41:05;-2.35;77.53
65864;SHT30;52639;51.180;20.460;2023-04-03T21:45:08;-2.38;77.30
65864;SHT30;52639;51.180;20.460;2023-04-03T21:49:16;-2.40;77.50
65864;SHT30;52639;51.180;20.460;2023-04-03T21:53:21;-2.31;77.34
65864;SHT30;52639;51.180;20.460;2023-04-03T21:57:24;-2.21;77.56
65864;SHT30;52639;51.180;20.460;2023-04-03T22:01:27;-2.11;78.34
65864;SHT30;52639;51.180;20.460;2023-04-03T22:05:30;-1.97;78.30
65864;SHT30;52639;51.180;20.460;2023-04-03T22:09:35;-1.83;78.21
65864;SHT30;52639;51.180;20.460;2023-04-03T22:13:38;-1.73;77.83
65864;SHT30;52639;51.180;20.460;2023-04-03T22:17:41;-1.74;77.13
65864;SHT30;52639;51.180;20.460;2023-04-03T22:21:44;-1.66;77.34
65864;SHT30;52639;51.180;20.460;2023-04-03T22:25:58;-1.70;76.66
65864;SHT30;52639;51.180;20.460;2023-04-03T22:30:01;-1.64;78.41
65864;SHT30;52639;51.180;20.460;2023-04-03T22:34:04;-1.66;77.78
65864;SHT30;52639;51.180;20.460;2023-04-03T22:38:07;-1.62;78.07
65864;SHT30;52639;51.180;20.460;2023-04-03T22:42:12;-1.62;77.63
65864;SHT30;52639;51.180;20.460;2023-04-03T22:46:14;-1.56;77.57
65864;SHT30;52639;51.180;20.460;2023-04-03T22:50:17;-1.49;77.44
65864;SHT30;52639;51.180;20.460;2023-04-03T22:54:20;-1.46;77.77
65864;SHT30;52639;51.180;20.460;2023-04-03T22:58:25;-1.46;77.30
65864;SHT30;52639;51.180;20.460;2023-04-03T23:02:30;-1.44;77.42
65864;SHT30;52639;51.180;20.460;2023-04-03T23:06:33;-1.39;77.70
65864;SHT30;52639;51.180;20.460;2023-04-03T23:10:37;-1.40;77.61
65864;SHT30;52639;51.180;20.460;2023-04-03T23:14:44;-1.36;77.92
65864;SHT30;52639;51.180;20.460;2023-04-03T23:18:47;-1.32;78.07
65864;SHT30;52639;51.180;20.460;2023-04-03T23:22:50;-1.33;78.41
65864;SHT30;52639;51.180;20.460;2023-04-03T23:26:53;-1.20;79.15
65864;SHT30;52639;51.180;20.460;2023-04-03T23:30:58;-1.15;77.62
65864;SHT30;52639;51.180;20.460;2023-04-03T23:35:01;-1.12;78.45
65864;SHT30;52639;51.180;20.460;2023-04-03T23:39:04;-1.02;78.24
65864;SHT30;52639;51.180;20.460;2023-04-03T23:43:07;-0.93;78.29
65864;SHT30;52639;51.180;20.460;2023-04-03T23:47:11;-0.95;77.57
65864;SHT30;52639;51.180;20.460;2023-04-03T23:51:14;-0.99;77.81
65864;SHT30;52639;51.180;20.460;2023-04-03T23:55:17;-0.96;77.62
65864;SHT30;52639;51.180;20.460;2023-04-03T23:59:20;-1.02;78.20
